sensor_id;sensor_type;location;lat;lon;timestamp;P1;durP1;ratioP1;P2;durP2;ratioP2
12780;SDS011;6454;43.304;24.344;2022-11-14T00:01:42;78.53;;;26.60;;
12780;SDS011;6454;43.304;24.344;2022-11-14T00:04:09;43.33;;;16.57;;
12780;SDS011;6454;43.304;24.344;2022-11-14T00:06:36;62.33;;;22.63;;
12780;SDS011;6454;43.304;24.344;2022-11-14T00:09:04;47.03;;;18.40;;
12780;SDS011;6454;43.304;24.344;2022-11-14T00:11:31;33.97;;;14.03;;
12780;SDS011;6454;43.304;24.344;2022-11-14T00:13:57;27.40;;;12.30;;
12780;SDS011;6454;43.304;24.344;2022-11-14T00:16:24;50.17;;;19.00;;
12780;SDS011;6454;43.304;24.344;2022-11-14T00:18:52;65.97;;;23.47;;
12780;SDS011;6454;43.304;24.344;2022-11-14T00:21:19;31.60;;;15.10;;
12780;SDS011;6454;43.304;24.344;2022-11-14T00:23:45;24.57;;;10.47;;
12780;SDS011;6454;43.304;24.344;2022-11-14T00:26:14;12.90;;;7.60;;
12780;SDS011;6454;43.304;24.344;2022-11-14T00:28:40;7.93;;;6.10;;
12780;SDS011;6454;43.304;24.344;2022-11-14T00:31:08;10.60;;;6.27;;
12780;SDS011;6454;43.304;24.344;2022-11-14T00:33:35;9.77;;;6.80;;
12780;SDS011;6454;43.304;24.344;2022-11-14T00:36:02;9.73;;;6.93;;
12780;SDS011;6454;43.304;24.344;2022-11-14T00:38:40;8.97;;;7.00;;
12780;SDS011;6454;43.304;24.344;2022-11-14T00:41:07;11.47;;;6.63;;
12780;SDS011;6454;43.304;24.344;2022-11-14T00:43:35;9.00;;;6.47;;
12780;SDS011;6454;43.304;24.344;2022-11-14T00:46:02;8.87;;;6.13;;
12780;SDS011;6454;43.304;24.344;2022-11-14T00:48:29;8.03;;;6.10;;
12780;SDS011;6454;43.304;24.344;2022-11-14T00:50:56;9.97;;;6.70;;
12780;SDS011;6454;43.304;24.344;2022-11-14T00:53:23;19.70;;;8.40;;
12780;SDS011;6454;43.304;24.344;2022-11-14T00:55:50;15.23;;;7.93;;
12780;SDS011;6454;43.304;24.344;2022-11-14T00:58:17;9.47;;;6.60;;
12780;SDS011;6454;43.304;24.344;2022-11-14T01:00:45;9.17;;;6.60;;
12780;SDS011;6454;43.304;24.344;2022-11-14T01:03:12;8.43;;;6.43;;
12780;SDS011;6454;43.304;24.344;2022-11-14T01:05:39;9.13;;;6.53;;
12780;SDS011;6454;43.304;24.344;2022-11-14T01:08:11;8.63;;;6.07;;
12780;SDS011;6454;43.304;24.344;2022-11-14T01:10:48;19.33;;;8.93;;
12780;SDS011;6454;43.304;24.344;2022-11-14T01:13:16;13.53;;;7.40;;
12780;SDS011;6454;43.304;24.344;2022-11-14T01:15:48;21.43;;;8.77;;
12780;SDS011;6454;43.304;24.344;2022-11-14T01:18:16;13.70;;;7.33;;
12780;SDS011;6454;43.304;24.344;2022-11-14T01:20:46;10.13;;;6.87;;
12780;SDS011;6454;43.304;24.344;2022-11-14T01:23:14;9.30;;;7.00;;
12780;SDS011;6454;43.304;24.344;2022-11-14T01:25:42;11.07;;;6.03;;
12780;SDS011;6454;43.304;24.344;2022-11-14T01:28:10;10.77;;;6.20;;
12780;SDS011;6454;43.304;24.344;2022-11-14T01:30:39;12.03;;;6.67;;
12780;SDS011;6454;43.304;24.344;2022-11-14T01:33:08;19.40;;;8.93;;
12780;SDS011;6454;43.304;24.344;2022-11-14T01:35:36;23.77;;;10.03;;
12780;SDS011;6454;43.304;24.344;2022-11-14T01:38:04;21.43;;;11.17;;
12780;SDS011;6454;43.304;24.344;2022-11-14T01:40:31;14.67;;;8.10;;
12780;SDS011;6454;43.304;24.344;2022-11-14T01:43:08;21.00;;;10.03;;
12780;SDS011;6454;43.304;24.344;2022-11-14T01:45:50;18.97;;;8.43;;
12780;SDS011;6454;43.304;24.344;2022-11-14T01:48:21;10.37;;;5.90;;
12780;SDS011;6454;43.304;24.344;2022-11-14T01:50:53;13.20;;;6.53;;
12780;SDS011;6454;43.304;24.344;2022-11-14T01:53:22;10.67;;;6.67;;
12780;SDS011;6454;43.304;24.344;2022-11-14T01:55:51;9.47;;;6.30;;
12780;SDS011;6454;43.304;24.344;2022-11-14T01:58:20;9.93;;;6.80;;
12780;SDS011;6454;43.304;24.344;2022-11-14T02:00:48;9.57;;;6.07;;
12780;SDS011;6454;43.304;24.344;2022-11-14T02:03:15;20.27;;;8.73;;
12780;SDS011;6454;43.304;24.344;2022-11-14T02:05:44;37.67;;;14.63;;
12780;SDS011;6454;43.304;24.344;2022-11-14T02:08:13;26.60;;;13.37;;
12780;SDS011;6454;43.304;24.344;2022-11-14T02:10:41;35.63;;;13.60;;
12780;SDS011;6454;43.304;24.344;2022-11-14T02:13:07;29.70;;;11.50;;
12780;SDS011;6454;43.304;24.344;2022-11-14T02:15:34;14.87;;;8.73;;
12780;SDS011;6454;43.304;24.344;2022-11-14T02:18:02;19.33;;;9.43;;
12780;SDS011;6454;43.304;24.344;2022-11-14T02:20:33;15.03;;;8.27;;
12780;SDS011;6454;43.304;24.344;2022-11-14T02:23:01;18.00;;;8.90;;
12780;SDS011;6454;43.304;24.344;2022-11-14T02:25:28;16.30;;;8.43;;
12780;SDS011;6454;43.304;24.344;2022-11-14T02:27:54;17.77;;;8.90;;
12780;SDS011;6454;43.304;24.344;2022-11-14T02:30:23;20.23;;;8.20;;
12780;SDS011;6454;43.304;24.344;2022-11-14T02:32:50;12.80;;;7.23;;
12780;SDS011;6454;43.304;24.344;2022-11-14T02:35:17;13.07;;;7.93;;
12780;SDS011;6454;43.304;24.344;2022-11-14T02:37:45;8.70;;;6.37;;
12780;SDS011;6454;43.304;24.344;2022-11-14T02:40:12;12.10;;;7.17;;
12780;SDS011;6454;43.304;24.344;2022-11-14T02:42:39;14.43;;;8.33;;
12780;SDS011;6454;43.304;24.344;2022-11-14T02:45:06;15.63;;;7.53;;
12780;SDS011;6454;43.304;24.344;2022-11-14T02:47:34;14.07;;;7.57;;
12780;SDS011;6454;43.304;24.344;2022-11-14T02:50:01;13.93;;;7.80;;
12780;SDS011;6454;43.304;24.344;2022-11-14T02:52:28;14.03;;;8.20;;
12780;SDS011;6454;43.304;24.344;2022-11-14T02:54:56;14.40;;;7.37;;
12780;SDS011;6454;43.304;24.344;2022-11-14T02:57:23;14.03;;;7.60;;
12780;SDS011;6454;43.304;24.344;2022-11-14T02:59:50;11.80;;;6.60;;
12780;SDS011;6454;43.304;24.344;2022-11-14T03:02:17;14.47;;;7.30;;
12780;SDS011;6454;43.304;24.344;2022-11-14T03:04:43;14.50;;;6.43;;
12780;SDS011;6454;43.304;24.344;2022-11-14T03:07:10;10.00;;;6.43;;
12780;SDS011;6454;43.304;24.344;2022-11-14T03:09:37;10.40;;;7.93;;
12780;SDS011;6454;43.304;24.344;2022-11-14T03:12:05;11.47;;;6.47;;
12780;SDS011;6454;43.304;24.344;2022-11-14T03:14:32;8.23;;;5.73;;
12780;SDS011;6454;43.304;24.344;2022-11-14T03:16:59;12.20;;;8.50;;
12780;SDS011;6454;43.304;24.344;2022-11-14T03:19:26;11.90;;;9.00;;
12780;SDS011;6454;43.304;24.344;2022-11-14T03:21:53;14.57;;;9.60;;
12780;SDS011;6454;43.304;24.344;2022-11-14T03:24:19;14.93;;;9.33;;
12780;SDS011;6454;43.304;24.344;2022-11-14T03:26:46;13.93;;;9.30;;
12780;SDS011;6454;43.304;24.344;2022-11-14T03:29:14;17.53;;;10.40;;
12780;SDS011;6454;43.304;24.344;2022-11-14T03:31:41;13.13;;;9.13;;
12780;SDS011;6454;43.304;24.344;2022-11-14T03:34:08;13.27;;;9.60;;
12780;SDS011;6454;43.304;24.344;2022-11-14T03:36:35;12.17;;;9.07;;
12780;SDS011;6454;43.304;24.344;2022-11-14T03:39:02;13.60;;;9.23;;
12780;SDS011;6454;43.304;24.344;2022-11-14T03:41:30;15.27;;;9.30;;
12780;SDS011;6454;43.304;24.344;2022-11-14T03:43:57;18.27;;;10.77;;
12780;SDS011;6454;43.304;24.344;2022-11-14T03:46:25;14.63;;;9.77;;
12780;SDS011;6454;43.304;24.344;2022-11-14T03:48:52;12.77;;;9.70;;
12780;SDS011;6454;43.304;24.344;2022-11-14T03:51:19;14.03;;;10.03;;
12780;SDS011;6454;43.304;24.344;2022-11-14T03:53:47;16.03;;;9.10;;
12780;SDS011;6454;43.304;24.344;2022-11-14T03:56:14;13.23;;;9.33;;
12780;SDS011;6454;43.304;24.344;2022-11-14T03:58:40;9.70;;;7.53;;
12780;SDS011;6454;43.304;24.344;2022-11-14T04:01:07;10.43;;;7.77;;
12780;SDS011;6454;43.304;24.344;2022-11-14T04:03:36;10.87;;;8.30;;
12780;SDS011;6454;43.304;24.344;2022-11-14T04:06:02;11.37;;;8.70;;
12780;SDS011;6454;43.304;24.344;2022-11-14T04:08:29;20.20;;;9.37;;
12780;SDS011;6454;43.304;24.344;2022-11-14T04:10:56;18.03;;;9.20;;
12780;SDS011;6454;43.304;24.344;2022-11-14T04:13:23;16.80;;;9.03;;
12780;SDS011;6454;43.304;24.344;2022-11-14T04:15:53;18.10;;;10.13;;
12780;SDS011;6454;43.304;24.344;2022-11-14T04:18:20;17.23;;;9.43;;
12780;SDS011;6454;43.304;24.344;2022-11-14T04:20:48;9.63;;;8.33;;
12780;SDS011;6454;43.304;24.344;2022-11-14T04:23:15;9.87;;;7.67;;
12780;SDS011;6454;43.304;24.344;2022-11-14T04:25:42;7.93;;;5.60;;
12780;SDS011;6454;43.304;24.344;2022-11-14T04:28:09;7.00;;;5.30;;
12780;SDS011;6454;43.304;24.344;2022-11-14T04:30:36;7.27;;;5.57;;
12780;SDS011;6454;43.304;24.344;2022-11-14T04:33:03;8.20;;;5.37;;
12780;SDS011;6454;43.304;24.344;2022-11-14T04:35:30;8.50;;;5.63;;
12780;SDS011;6454;43.304;24.344;2022-11-14T04:37:58;10.30;;;5.83;;
12780;SDS011;6454;43.304;24.344;2022-11-14T04:40:25;10.67;;;5.83;;
12780;SDS011;6454;43.304;24.344;2022-11-14T04:42:51;8.23;;;5.20;;
12780;SDS011;6454;43.304;24.344;2022-11-14T04:45:18;7.37;;;5.30;;
12780;SDS011;6454;43.304;24.344;2022-11-14T04:47:45;5.07;;;4.57;;
12780;SDS011;6454;43.304;24.344;2022-11-14T04:50:12;9.20;;;5.80;;
12780;SDS011;6454;43.304;24.344;2022-11-14T04:52:39;6.90;;;5.07;;
12780;SDS011;6454;43.304;24.344;2022-11-14T04:55:07;5.73;;;5.00;;
12780;SDS011;6454;43.304;24.344;2022-11-14T04:57:34;8.67;;;5.50;;
12780;SDS011;6454;43.304;24.344;2022-11-14T05:00:05;8.30;;;5.17;;
12780;SDS011;6454;43.304;24.344;2022-11-14T05:02:34;6.40;;;5.07;;
12780;SDS011;6454;43.304;24.344;2022-11-14T05:05:00;9.67;;;5.50;;
12780;SDS011;6454;43.304;24.344;2022-11-14T05:07:27;9.77;;;5.67;;
12780;SDS011;6454;43.304;24.344;2022-11-14T05:09:54;7.90;;;5.27;;
12780;SDS011;6454;43.304;24.344;2022-11-14T05:12:22;6.30;;;5.00;;
12780;SDS011;6454;43.304;24.344;2022-11-14T05:14:49;9.33;;;5.13;;
12780;SDS011;6454;43.304;24.344;2022-11-14T05:17:16;7.83;;;5.43;;
12780;SDS011;6454;43.304;24.344;2022-11-14T05:19:42;7.90;;;5.00;;
12780;SDS011;6454;43.304;24.344;2022-11-14T05:22:09;10.83;;;5.50;;
12780;SDS011;6454;43.304;24.344;2022-11-14T05:24:36;10.00;;;5.57;;
12780;SDS011;6454;43.304;24.344;2022-11-14T05:27:02;9.37;;;5.53;;
12780;SDS011;6454;43.304;24.344;2022-11-14T05:29:31;8.10;;;5.27;;
12780;SDS011;6454;43.304;24.344;2022-11-14T05:31:57;9.93;;;5.53;;
12780;SDS011;6454;43.304;24.344;2022-11-14T05:34:24;7.33;;;5.83;;
12780;SDS011;6454;43.304;24.344;2022-11-14T05:36:52;11.03;;;5.33;;
12780;SDS011;6454;43.304;24.344;2022-11-14T05:39:18;9.13;;;5.47;;
12780;SDS011;6454;43.304;24.344;2022-11-14T05:41:45;7.80;;;5.30;;
12780;SDS011;6454;43.304;24.344;2022-11-14T05:44:12;5.43;;;4.77;;
12780;SDS011;6454;43.304;24.344;2022-11-14T05:46:40;7.03;;;4.60;;
12780;SDS011;6454;43.304;24.344;2022-11-14T05:49:07;6.93;;;4.77;;
12780;SDS011;6454;43.304;24.344;2022-11-14T05:51:34;7.67;;;5.87;;
12780;SDS011;6454;43.304;24.344;2022-11-14T05:54:01;10.33;;;6.20;;
12780;SDS011;6454;43.304;24.344;2022-11-14T05:56:27;8.37;;;5.60;;
12780;SDS011;6454;43.304;24.344;2022-11-14T05:58:54;5.47;;;4.57;;
12780;SDS011;6454;43.304;24.344;2022-11-14T06:01:21;7.07;;;5.23;;
12780;SDS011;6454;43.304;24.344;2022-11-14T06:03:49;10.03;;;6.30;;
12780;SDS011;6454;43.304;24.344;2022-11-14T06:06:17;7.90;;;5.97;;
12780;SDS011;6454;43.304;24.344;2022-11-14T06:08:46;11.67;;;6.17;;
12780;SDS011;6454;43.304;24.344;2022-11-14T06:11:13;11.33;;;7.03;;
12780;SDS011;6454;43.304;24.344;2022-11-14T06:13:41;10.07;;;7.20;;
12780;SDS011;6454;43.304;24.344;2022-11-14T06:16:09;11.87;;;7.60;;
12780;SDS011;6454;43.304;24.344;2022-11-14T06:18:37;11.43;;;8.00;;
12780;SDS011;6454;43.304;24.344;2022-11-14T06:21:07;11.30;;;7.83;;
12780;SDS011;6454;43.304;24.344;2022-11-14T06:23:37;14.23;;;9.10;;
12780;SDS011;6454;43.304;24.344;2022-11-14T06:26:04;15.07;;;9.67;;
12780;SDS011;6454;43.304;24.344;2022-11-14T06:28:32;14.10;;;10.13;;
12780;SDS011;6454;43.304;24.344;2022-11-14T06:31:00;16.47;;;10.43;;
12780;SDS011;6454;43.304;24.344;2022-11-14T06:33:31;18.37;;;10.87;;
12780;SDS011;6454;43.304;24.344;2022-11-14T06:35:59;13.77;;;10.33;;
12780;SDS011;6454;43.304;24.344;2022-11-14T06:38:29;17.10;;;10.60;;
12780;SDS011;6454;43.304;24.344;2022-11-14T06:41:03;13.90;;;10.07;;
12780;SDS011;6454;43.304;24.344;2022-11-14T06:43:33;13.90;;;10.10;;
12780;SDS011;6454;43.304;24.344;2022-11-14T06:46:00;12.77;;;8.67;;
12780;SDS011;6454;43.304;24.344;2022-11-14T06:48:27;15.70;;;10.60;;
12780;SDS011;6454;43.304;24.344;2022-11-14T06:50:54;16.43;;;9.83;;
12780;SDS011;6454;43.304;24.344;2022-11-14T06:53:22;12.27;;;9.03;;
12780;SDS011;6454;43.304;24.344;2022-11-14T06:55:57;12.60;;;10.17;;
12780;SDS011;6454;43.304;24.344;2022-11-14T06:58:25;11.57;;;8.93;;
12780;SDS011;6454;43.304;24.344;2022-11-14T07:00:52;12.80;;;10.13;;
12780;SDS011;6454;43.304;24.344;2022-11-14T07:03:19;13.40;;;9.57;;
12780;SDS011;6454;43.304;24.344;2022-11-14T07:05:46;17.00;;;9.40;;
12780;SDS011;6454;43.304;24.344;2022-11-14T07:08:13;10.53;;;9.27;;
12780;SDS011;6454;43.304;24.344;2022-11-14T07:10:40;13.30;;;9.03;;
12780;SDS011;6454;43.304;24.344;2022-11-14T07:13:08;12.53;;;8.97;;
12780;SDS011;6454;43.304;24.344;2022-11-14T07:15:35;10.90;;;8.97;;
12780;SDS011;6454;43.304;24.344;2022-11-14T07:18:02;11.90;;;8.73;;
12780;SDS011;6454;43.304;24.344;2022-11-14T07:20:29;11.70;;;10.03;;
12780;SDS011;6454;43.304;24.344;2022-11-14T07:22:56;11.07;;;8.83;;
12780;SDS011;6454;43.304;24.344;2022-11-14T07:25:23;11.50;;;9.17;;
12780;SDS011;6454;43.304;24.344;2022-11-14T07:27:49;11.70;;;8.43;;
12780;SDS011;6454;43.304;24.344;2022-11-14T07:30:18;15.23;;;10.63;;
12780;SDS011;6454;43.304;24.344;2022-11-14T07:32:45;18.90;;;12.63;;
12780;SDS011;6454;43.304;24.344;2022-11-14T07:35:11;19.83;;;14.50;;
12780;SDS011;6454;43.304;24.344;2022-11-14T07:37:38;17.43;;;14.97;;
12780;SDS011;6454;43.304;24.344;2022-11-14T07:40:06;21.90;;;15.13;;
12780;SDS011;6454;43.304;24.344;2022-11-14T07:42:33;17.33;;;13.10;;
12780;SDS011;6454;43.304;24.344;2022-11-14T07:45:00;14.27;;;11.67;;
12780;SDS011;6454;43.304;24.344;2022-11-14T07:47:28;15.77;;;10.67;;
12780;SDS011;6454;43.304;24.344;2022-11-14T07:49:55;15.23;;;10.77;;
12780;SDS011;6454;43.304;24.344;2022-11-14T07:52:21;15.07;;;10.67;;
12780;SDS011;6454;43.304;24.344;2022-11-14T07:54:48;15.70;;;10.50;;
12780;SDS011;6454;43.304;24.344;2022-11-14T07:57:15;15.97;;;11.30;;
12780;SDS011;6454;43.304;24.344;2022-11-14T07:59:42;14.07;;;10.53;;
12780;SDS011;6454;43.304;24.344;2022-11-14T08:02:10;13.80;;;11.33;;
12780;SDS011;6454;43.304;24.344;2022-11-14T08:04:40;18.30;;;11.50;;
12780;SDS011;6454;43.304;24.344;2022-11-14T08:07:07;15.67;;;11.13;;
12780;SDS011;6454;43.304;24.344;2022-11-14T08:09:34;12.87;;;10.23;;
12780;SDS011;6454;43.304;24.344;2022-11-14T08:12:01;11.90;;;9.30;;
12780;SDS011;6454;43.304;24.344;2022-11-14T08:14:28;9.93;;;8.93;;
12780;SDS011;6454;43.304;24.344;2022-11-14T08:16:54;11.83;;;9.07;;
12780;SDS011;6454;43.304;24.344;2022-11-14T08:19:21;14.50;;;9.90;;
12780;SDS011;6454;43.304;24.344;2022-11-14T08:21:49;12.37;;;10.23;;
12780;SDS011;6454;43.304;24.344;2022-11-14T08:24:16;14.73;;;10.30;;
12780;SDS011;6454;43.304;24.344;2022-11-14T08:26:43;14.93;;;10.38;;
12780;SDS011;6454;43.304;24.344;2022-11-14T08:29:10;14.87;;;9.97;;
12780;SDS011;6454;43.304;24.344;2022-11-14T08:31:37;17.50;;;10.97;;
12780;SDS011;6454;43.304;24.344;2022-11-14T08:34:04;14.57;;;9.93;;
12780;SDS011;6454;43.304;24.344;2022-11-14T08:36:30;14.43;;;9.73;;
12780;SDS011;6454;43.304;24.344;2022-11-14T08:38:58;12.45;;;9.75;;
12780;SDS011;6454;43.304;24.344;2022-11-14T08:41:25;13.15;;;9.70;;
12780;SDS011;6454;43.304;24.344;2022-11-14T08:43:52;14.43;;;10.30;;
12780;SDS011;6454;43.304;24.344;2022-11-14T08:46:19;15.02;;;10.32;;
12780;SDS011;6454;43.304;24.344;2022-11-14T08:48:46;13.48;;;9.73;;
12780;SDS011;6454;43.304;24.344;2022-11-14T08:51:12;15.00;;;10.80;;
12780;SDS011;6454;43.304;24.344;2022-11-14T08:53:39;16.17;;;11.40;;
12780;SDS011;6454;43.304;24.344;2022-11-14T08:56:08;17.30;;;11.70;;
12780;SDS011;6454;43.304;24.344;2022-11-14T08:58:36;21.87;;;15.00;;
12780;SDS011;6454;43.304;24.344;2022-11-14T09:01:04;21.77;;;13.37;;
12780;SDS011;6454;43.304;24.344;2022-11-14T09:03:32;22.20;;;16.15;;
12780;SDS011;6454;43.304;24.344;2022-11-14T09:05:59;24.47;;;15.30;;
12780;SDS011;6454;43.304;24.344;2022-11-14T09:08:26;21.50;;;13.32;;
12780;SDS011;6454;43.304;24.344;2022-11-14T09:10:53;17.77;;;12.80;;
12780;SDS011;6454;43.304;24.344;2022-11-14T09:13:22;22.60;;;13.82;;
12780;SDS011;6454;43.304;24.344;2022-11-14T09:15:49;23.40;;;13.07;;
12780;SDS011;6454;43.304;24.344;2022-11-14T09:18:15;23.38;;;13.95;;
12780;SDS011;6454;43.304;24.344;2022-11-14T09:20:42;24.13;;;14.13;;
12780;SDS011;6454;43.304;24.344;2022-11-14T09:23:09;23.02;;;14.73;;
12780;SDS011;6454;43.304;24.344;2022-11-14T09:25:36;24.65;;;14.55;;
12780;SDS011;6454;43.304;24.344;2022-11-14T09:28:04;27.98;;;15.93;;
12780;SDS011;6454;43.304;24.344;2022-11-14T09:30:34;21.80;;;15.43;;
12780;SDS011;6454;43.304;24.344;2022-11-14T09:33:03;27.52;;;16.45;;
12780;SDS011;6454;43.304;24.344;2022-11-14T09:35:30;23.30;;;15.45;;
12780;SDS011;6454;43.304;24.344;2022-11-14T09:38:00;24.40;;;15.00;;
12780;SDS011;6454;43.304;24.344;2022-11-14T09:40:27;24.00;;;14.20;;
12780;SDS011;6454;43.304;24.344;2022-11-14T09:43:01;21.20;;;14.27;;
12780;SDS011;6454;43.304;24.344;2022-11-14T09:45:46;24.63;;;17.08;;
12780;SDS011;6454;43.304;24.344;2022-11-14T09:48:15;25.30;;;16.98;;
12780;SDS011;6454;43.304;24.344;2022-11-14T09:50:45;27.08;;;16.73;;
12780;SDS011;6454;43.304;24.344;2022-11-14T09:53:20;24.38;;;16.20;;
12780;SDS011;6454;43.304;24.344;2022-11-14T09:55:54;26.15;;;17.10;;
12780;SDS011;6454;43.304;24.344;2022-11-14T09:58:21;36.80;;;25.40;;
12780;SDS011;6454;43.304;24.344;2022-11-14T10:00:50;52.95;;;31.92;;
12780;SDS011;6454;43.304;24.344;2022-11-14T10:03:23;55.03;;;35.65;;
12780;SDS011;6454;43.304;24.344;2022-11-14T10:06:05;28.15;;;17.98;;
12780;SDS011;6454;43.304;24.344;2022-11-14T10:09:02;22.58;;;16.17;;
12780;SDS011;6454;43.304;24.344;2022-11-14T10:11:46;23.38;;;15.85;;
12780;SDS011;6454;43.304;24.344;2022-11-14T10:14:21;22.88;;;14.88;;
12780;SDS011;6454;43.304;24.344;2022-11-14T10:17:15;26.67;;;16.25;;
12780;SDS011;6454;43.304;24.344;2022-11-14T10:19:51;21.27;;;14.80;;
12780;SDS011;6454;43.304;24.344;2022-11-14T10:22:34;19.65;;;13.73;;
12780;SDS011;6454;43.304;24.344;2022-11-14T10:25:18;22.42;;;14.88;;
12780;SDS011;6454;43.304;24.344;2022-11-14T10:27:56;24.50;;;15.45;;
12780;SDS011;6454;43.304;24.344;2022-11-14T10:30:34;20.95;;;14.85;;
12780;SDS011;6454;43.304;24.344;2022-11-14T10:33:14;21.75;;;14.57;;
12780;SDS011;6454;43.304;24.344;2022-11-14T10:35:49;19.17;;;14.40;;
12780;SDS011;6454;43.304;24.344;2022-11-14T10:38:23;22.85;;;14.18;;
12780;SDS011;6454;43.304;24.344;2022-11-14T10:40:58;25.25;;;16.10;;
12780;SDS011;6454;43.304;24.344;2022-11-14T10:43:28;22.10;;;14.50;;
12780;SDS011;6454;43.304;24.344;2022-11-14T10:46:00;24.60;;;14.98;;
12780;SDS011;6454;43.304;24.344;2022-11-14T10:48:32;24.75;;;16.50;;
12780;SDS011;6454;43.304;24.344;2022-11-14T10:51:02;22.38;;;15.00;;
12780;SDS011;6454;43.304;24.344;2022-11-14T10:53:40;22.80;;;15.18;;
12780;SDS011;6454;43.304;24.344;2022-11-14T10:56:13;20.40;;;14.98;;
12780;SDS011;6454;43.304;24.344;2022-11-14T10:58:40;23.48;;;16.15;;
12780;SDS011;6454;43.304;24.344;2022-11-14T11:04:12;19.00;;;14.05;;
12780;SDS011;6454;43.304;24.344;2022-11-14T11:06:43;14.63;;;11.98;;
12780;SDS011;6454;43.304;24.344;2022-11-14T11:09:12;16.50;;;12.88;;
12780;SDS011;6454;43.304;24.344;2022-11-14T11:11:59;18.52;;;14.13;;
12780;SDS011;6454;43.304;24.344;2022-11-14T11:14:27;15.27;;;11.88;;
12780;SDS011;6454;43.304;24.344;2022-11-14T11:17:13;16.55;;;11.90;;
12780;SDS011;6454;43.304;24.344;2022-11-14T11:19:45;18.95;;;12.80;;
12780;SDS011;6454;43.304;24.344;2022-11-14T11:22:23;16.17;;;12.10;;
12780;SDS011;6454;43.304;24.344;2022-11-14T11:25:01;15.80;;;11.75;;
12780;SDS011;6454;43.304;24.344;2022-11-14T11:27:28;15.65;;;11.45;;
12780;SDS011;6454;43.304;24.344;2022-11-14T11:30:06;19.65;;;12.88;;
12780;SDS011;6454;43.304;24.344;2022-11-14T11:32:43;17.38;;;11.85;;
12780;SDS011;6454;43.304;24.344;2022-11-14T11:35:12;13.55;;;11.88;;
12780;SDS011;6454;43.304;24.344;2022-11-14T11:37:42;16.05;;;11.88;;
12780;SDS011;6454;43.304;24.344;2022-11-14T11:40:17;19.35;;;12.57;;
12780;SDS011;6454;43.304;24.344;2022-11-14T11:42:48;17.63;;;11.30;;
12780;SDS011;6454;43.304;24.344;2022-11-14T11:45:23;19.35;;;12.15;;
12780;SDS011;6454;43.304;24.344;2022-11-14T11:47:53;14.77;;;11.70;;
12780;SDS011;6454;43.304;24.344;2022-11-14T11:50:24;13.75;;;11.73;;
12780;SDS011;6454;43.304;24.344;2022-11-14T11:52:55;16.45;;;11.50;;
12780;SDS011;6454;43.304;24.344;2022-11-14T11:55:32;15.75;;;12.20;;
12780;SDS011;6454;43.304;24.344;2022-11-14T11:58:04;13.15;;;10.65;;
12780;SDS011;6454;43.304;24.344;2022-11-14T12:00:37;15.20;;;11.57;;
12780;SDS011;6454;43.304;24.344;2022-11-14T12:03:09;17.60;;;13.13;;
12780;SDS011;6454;43.304;24.344;2022-11-14T12:05:44;15.32;;;11.93;;
12780;SDS011;6454;43.304;24.344;2022-11-14T12:08:20;16.95;;;11.40;;
12780;SDS011;6454;43.304;24.344;2022-11-14T12:10:59;20.33;;;13.70;;
12780;SDS011;6454;43.304;24.344;2022-11-14T12:13:40;16.80;;;12.60;;
12780;SDS011;6454;43.304;24.344;2022-11-14T12:16:29;18.98;;;12.57;;
12780;SDS011;6454;43.304;24.344;2022-11-14T12:19:10;15.00;;;11.55;;
12780;SDS011;6454;43.304;24.344;2022-11-14T12:22:13;17.13;;;12.88;;
12780;SDS011;6454;43.304;24.344;2022-11-14T12:24:53;17.40;;;12.20;;
12780;SDS011;6454;43.304;24.344;2022-11-14T12:27:37;15.05;;;12.00;;
12780;SDS011;6454;43.304;24.344;2022-11-14T12:30:15;14.82;;;11.75;;
12780;SDS011;6454;43.304;24.344;2022-11-14T12:32:47;16.13;;;12.48;;
12780;SDS011;6454;43.304;24.344;2022-11-14T12:35:19;17.30;;;13.30;;
12780;SDS011;6454;43.304;24.344;2022-11-14T12:37:51;20.58;;;15.52;;
12780;SDS011;6454;43.304;24.344;2022-11-14T12:40:21;15.88;;;12.55;;
12780;SDS011;6454;43.304;24.344;2022-11-14T12:42:53;16.27;;;12.13;;
12780;SDS011;6454;43.304;24.344;2022-11-14T12:48:22;18.00;;;14.40;;
12780;SDS011;6454;43.304;24.344;2022-11-14T12:50:56;17.63;;;13.20;;
12780;SDS011;6454;43.304;24.344;2022-11-14T12:53:38;17.45;;;12.98;;
12780;SDS011;6454;43.304;24.344;2022-11-14T12:59:20;24.67;;;18.08;;
12780;SDS011;6454;43.304;24.344;2022-11-14T13:01:58;22.92;;;17.33;;
12780;SDS011;6454;43.304;24.344;2022-11-14T13:04:44;18.15;;;13.57;;
12780;SDS011;6454;43.304;24.344;2022-11-14T13:07:25;18.30;;;12.73;;
12780;SDS011;6454;43.304;24.344;2022-11-14T13:10:02;15.55;;;12.38;;
12780;SDS011;6454;43.304;24.344;2022-11-14T13:12:38;20.38;;;15.57;;
12780;SDS011;6454;43.304;24.344;2022-11-14T13:15:24;20.42;;;14.18;;
12780;SDS011;6454;43.304;24.344;2022-11-14T13:18:20;22.92;;;15.45;;
12780;SDS011;6454;43.304;24.344;2022-11-14T13:21:15;21.02;;;14.80;;
12780;SDS011;6454;43.304;24.344;2022-11-14T13:24:07;22.00;;;16.25;;
12780;SDS011;6454;43.304;24.344;2022-11-14T13:26:43;20.95;;;14.60;;
12780;SDS011;6454;43.304;24.344;2022-11-14T13:35:39;20.20;;;15.40;;
12780;SDS011;6454;43.304;24.344;2022-11-14T13:38:25;20.73;;;15.13;;
12780;SDS011;6454;43.304;24.344;2022-11-14T13:41:23;21.30;;;14.48;;
12780;SDS011;6454;43.304;24.344;2022-11-14T13:44:08;22.48;;;13.52;;
12780;SDS011;6454;43.304;24.344;2022-11-14T13:46:59;18.08;;;13.68;;
12780;SDS011;6454;43.304;24.344;2022-11-14T13:49:43;20.80;;;14.20;;
12780;SDS011;6454;43.304;24.344;2022-11-14T13:52:20;26.92;;;17.13;;
12780;SDS011;6454;43.304;24.344;2022-11-14T13:54:50;24.13;;;16.70;;
12780;SDS011;6454;43.304;24.344;2022-11-14T13:57:20;21.52;;;15.32;;
12780;SDS011;6454;43.304;24.344;2022-11-14T14:00:00;19.75;;;14.13;;
12780;SDS011;6454;43.304;24.344;2022-11-14T14:02:37;20.63;;;14.68;;
12780;SDS011;6454;43.304;24.344;2022-11-14T14:05:20;23.02;;;15.27;;
12780;SDS011;6454;43.304;24.344;2022-11-14T14:07:57;22.45;;;16.20;;
12780;SDS011;6454;43.304;24.344;2022-11-14T14:10:38;26.30;;;15.90;;
12780;SDS011;6454;43.304;24.344;2022-11-14T14:13:14;21.95;;;14.90;;
12780;SDS011;6454;43.304;24.344;2022-11-14T14:16:00;19.83;;;13.65;;
12780;SDS011;6454;43.304;24.344;2022-11-14T14:18:50;19.67;;;14.57;;
12780;SDS011;6454;43.304;24.344;2022-11-14T14:21:29;18.63;;;13.27;;
12780;SDS011;6454;43.304;24.344;2022-11-14T14:24:08;19.25;;;13.25;;
12780;SDS011;6454;43.304;24.344;2022-11-14T14:26:49;19.27;;;12.45;;
12780;SDS011;6454;43.304;24.344;2022-11-14T14:29:28;21.08;;;13.35;;
12780;SDS011;6454;43.304;24.344;2022-11-14T14:32:10;17.40;;;12.68;;
12780;SDS011;6454;43.304;24.344;2022-11-14T14:34:38;17.75;;;13.25;;
12780;SDS011;6454;43.304;24.344;2022-11-14T14:37:12;16.25;;;13.27;;
12780;SDS011;6454;43.304;24.344;2022-11-14T14:39:46;18.55;;;12.90;;
12780;SDS011;6454;43.304;24.344;2022-11-14T14:42:21;18.80;;;13.77;;
12780;SDS011;6454;43.304;24.344;2022-11-14T14:44:48;20.45;;;13.77;;
12780;SDS011;6454;43.304;24.344;2022-11-14T14:47:17;20.08;;;14.02;;
12780;SDS011;6454;43.304;24.344;2022-11-14T14:49:58;26.67;;;16.05;;
12780;SDS011;6454;43.304;24.344;2022-11-14T14:52:27;26.60;;;17.77;;
12780;SDS011;6454;43.304;24.344;2022-11-14T14:54:56;21.33;;;13.30;;
12780;SDS011;6454;43.304;24.344;2022-11-14T14:57:26;21.27;;;13.77;;
12780;SDS011;6454;43.304;24.344;2022-11-14T14:59:57;23.15;;;14.25;;
12780;SDS011;6454;43.304;24.344;2022-11-14T15:02:27;23.65;;;16.02;;
12780;SDS011;6454;43.304;24.344;2022-11-14T15:04:54;25.73;;;15.57;;